Time;durP1;ratioP1;P1;durP2;ratioP2;P2;SDS_P1;SDS_P2;PMS_P1;PMS_P2;Temp;Humidity;BMP_temperature;BMP_pressure;BME280_temperature;BME280_humidity;BME280_pressure;Samples;Min_cycle;Max_cycle;Signal;HPM_P1;HPM_P2
2023/07/12 00:01:18;;;;;;;9.52;5.47;;;23.10;94.20;;;;;;5082987;28;20044;-57
2023/07/12 00:04:01;;;;;;;9.85;5.57;;;23.10;94.00;;;;;;5088832;28;20028;-59
2023/07/12 00:06:36;;;;;;;8.77;5.20;;;23.00;94.20;;;;;;5058412;28;20045;-61
2023/07/12 00:09:11;;;;;;;8.75;5.30;;;23.00;94.30;;;;;;5048411;28;20045;-56
2023/07/12 00:11:37;;;;;;;7.20;4.88;;;23.00;94.40;;;;;;5029114;28;20801;-55
2023/07/12 00:14:03;;;;;;;10.63;5.95;;;23.00;94.60;;;;;;5043559;28;20029;-59
2023/07/12 00:16:34;;;;;;;15.73;4.97;;;22.90;94.70;;;;;;5040933;28;20037;-58
2023/07/12 00:19:00;;;;;;;7.65;5.22;;;22.90;94.80;;;;;;5026219;28;20033;-59
2023/07/12 00:21:28;;;;;;;10.45;5.55;;;22.80;95.20;;;;;;5033979;28;20045;-58
2023/07/12 00:23:55;;;;;;;10.25;5.75;;;22.80;95.30;;;;;;5018673;28;20045;-55
2023/07/12 00:26:31;;;;;;;7.45;4.82;;;22.70;95.80;;;;;;5033847;28;20041;-57
2023/07/12 00:28:58;;;;;;;8.55;4.65;;;22.70;96.20;;;;;;5027851;28;20036;-57
2023/07/12 00:31:24;;;;;;;10.52;5.55;;;22.60;96.50;;;;;;5026099;28;20041;-61
2023/07/12 00:33:50;;;;;;;11.27;5.32;;;22.50;96.80;;;;;;5037560;28;20043;-58
2023/07/12 00:36:20;;;;;;;7.72;4.97;;;22.40;97.10;;;;;;5042884;28;20036;-54
2023/07/12 00:38:46;;;;;;;10.32;5.03;;;22.40;97.40;;;;;;5031627;28;20907;-60
2023/07/12 00:41:49;;;;;;;7.13;4.70;;;22.30;97.40;;;;;;5026999;28;20053;-56
2023/07/12 00:44:41;;;;;;;10.75;4.93;;;22.30;97.90;;;;;;5040088;28;20072;-60
2023/07/12 00:47:11;;;;;;;8.52;4.60;;;22.20;98.30;;;;;;5029766;28;20037;-60
2023/07/12 00:49:37;;;;;;;12.50;5.50;;;22.10;98.70;;;;;;5029421;28;20060;-59
2023/07/12 00:52:16;;;;;;;9.23;5.10;;;22.00;98.90;;;;;;5037753;28;20033;-60
2023/07/12 00:54:50;;;;;;;8.35;5.13;;;22.00;99.40;;;;;;5035914;28;20040;-59
2023/07/12 00:57:16;;;;;;;9.10;5.05;;;21.90;99.80;;;;;;5035123;28;20489;-57
2023/07/12 00:59:42;;;;;;;9.50;5.60;;;21.80;99.90;;;;;;5028044;28;20044;-60
2023/07/12 01:02:08;;;;;;;8.27;5.13;;;21.80;99.90;;;;;;5034079;28;20047;-58
2023/07/12 01:04:40;;;;;;;9.25;5.93;;;21.70;99.90;;;;;;5024481;28;20049;-60
2023/07/12 01:07:06;;;;;;;10.82;5.80;;;21.70;99.90;;;;;;5031911;28;20493;-60
2023/07/12 01:09:32;;;;;;;9.63;5.18;;;21.70;99.90;;;;;;5030691;28;20091;-59
2023/07/12 01:11:59;;;;;;;13.57;5.60;;;21.70;99.90;;;;;;5034474;28;20049;-59
2023/07/12 01:14:26;;;;;;;7.88;5.35;;;21.70;99.90;;;;;;5034491;28;20132;-59
2023/07/12 01:17:04;;;;;;;12.40;5.32;;;21.60;99.90;;;;;;5036032;28;20706;-61
2023/07/12 01:19:31;;;;;;;9.88;5.40;;;21.60;99.90;;;;;;5041107;28;20543;-55
2023/07/12 01:21:57;;;;;;;9.20;5.75;;;21.60;99.90;;;;;;5034231;28;20061;-59
2023/07/12 01:24:26;;;;;;;10.73;5.80;;;21.60;99.90;;;;;;5030351;28;20155;-58
2023/07/12 01:26:57;;;;;;;11.00;5.72;;;21.60;99.90;;;;;;5032666;28;20144;-62
2023/07/12 01:29:23;;;;;;;9.38;5.15;;;21.60;99.90;;;;;;5035315;28;20041;-56
2023/07/12 01:31:49;;;;;;;11.43;5.85;;;21.60;99.90;;;;;;5034737;28;20045;-58
2023/07/12 01:34:16;;;;;;;9.95;5.88;;;21.60;99.90;;;;;;5038795;28;20032;-58
2023/07/12 01:36:42;;;;;;;9.48;5.65;;;21.60;99.90;;;;;;5031520;28;20036;-60
2023/07/12 01:39:08;;;;;;;8.32;5.18;;;21.60;99.90;;;;;;5037387;28;20072;-58
2023/07/12 01:41:34;;;;;;;10.77;5.88;;;21.60;99.90;;;;;;5036047;28;20033;-61
2023/07/12 01:43:59;;;;;;;10.23;5.68;;;21.60;99.90;;;;;;5030469;28;20082;-61
2023/07/12 01:46:26;;;;;;;11.07;6.40;;;21.50;99.90;;;;;;5036180;28;20051;-58
2023/07/12 01:48:52;;;;;;;10.93;6.05;;;21.60;99.90;;;;;;5040731;28;20029;-53
2023/07/12 01:51:19;;;;;;;12.80;5.38;;;21.50;99.90;;;;;;5032009;28;20043;-58
2023/07/12 01:53:45;;;;;;;11.57;5.50;;;21.40;99.90;;;;;;5040437;28;20041;-61
2023/07/12 01:56:12;;;;;;;9.25;5.05;;;21.30;99.90;;;;;;5036858;28;20048;-57
2023/07/12 01:58:37;;;;;;;8.82;4.88;;;21.30;99.90;;;;;;5038389;28;20702;-61
2023/07/12 02:01:03;;;;;;;13.73;5.65;;;21.20;99.90;;;;;;5037868;28;20040;-58
2023/07/12 02:03:29;;;;;;;9.60;5.10;;;21.20;99.90;;;;;;5029246;28;20045;-59
2023/07/12 02:05:55;;;;;;;9.18;5.03;;;21.10;99.90;;;;;;5033123;28;20044;-58
2023/07/12 02:08:21;;;;;;;9.70;6.53;;;21.10;99.90;;;;;;5040586;28;20519;-60
2023/07/12 02:10:47;;;;;;;13.02;5.30;;;20.90;99.90;;;;;;5040032;28;20072;-57
2023/07/12 02:13:14;;;;;;;12.82;6.07;;;20.80;99.90;;;;;;5037168;28;20143;-60
2023/07/12 02:15:40;;;;;;;8.95;5.35;;;20.80;99.90;;;;;;5038040;28;20552;-57
2023/07/12 02:18:06;;;;;;;13.13;6.18;;;20.70;99.90;;;;;;5038299;28;20049;-60
2023/07/12 02:20:32;;;;;;;14.20;5.82;;;20.70;99.90;;;;;;5035313;28;20128;-59
2023/07/12 02:22:58;;;;;;;10.10;6.05;;;20.60;99.90;;;;;;5036711;28;20604;-59
2023/07/12 02:25:25;;;;;;;13.48;6.85;;;20.60;99.90;;;;;;5038458;28;20402;-52
2023/07/12 02:27:50;;;;;;;12.07;6.82;;;20.60;99.90;;;;;;5034532;28;20036;-58
2023/07/12 02:30:18;;;;;;;13.80;7.05;;;20.50;99.90;;;;;;5041703;28;20036;-61
2023/07/12 02:32:45;;;;;;;13.43;6.43;;;20.50;99.90;;;;;;5032429;28;20037;-58
2023/07/12 02:35:11;;;;;;;19.35;9.00;;;20.40;99.90;;;;;;5039411;28;20119;-59
2023/07/12 02:37:37;;;;;;;12.27;6.65;;;20.20;99.90;;;;;;5038276;28;20061;-59
2023/07/12 02:40:05;;;;;;;13.45;7.50;;;20.20;99.90;;;;;;5040389;28;20071;-59
2023/07/12 02:42:31;;;;;;;11.35;6.82;;;20.20;99.90;;;;;;5032167;28;20086;-56
2023/07/12 02:44:57;;;;;;;12.35;6.95;;;20.10;99.90;;;;;;5040976;28;20121;-59
2023/07/12 02:47:23;;;;;;;19.63;8.77;;;20.10;99.90;;;;;;5036940;28;20127;-60
2023/07/12 02:49:48;;;;;;;12.40;6.93;;;20.10;99.90;;;;;;5031397;28;20048;-52
2023/07/12 02:52:14;;;;;;;12.23;6.88;;;20.10;99.90;;;;;;5036602;28;20033;-59
2023/07/12 02:54:40;;;;;;;12.68;6.82;;;20.00;99.90;;;;;;5039598;28;20044;-60
2023/07/12 02:57:09;;;;;;;11.93;6.50;;;20.00;99.90;;;;;;5035261;28;20045;-57
2023/07/12 02:59:34;;;;;;;13.30;6.50;;;20.00;99.90;;;;;;5029431;28;20060;-60
2023/07/12 03:02:00;;;;;;;14.55;6.15;;;20.00;99.90;;;;;;5037123;28;20040;-58
2023/07/12 03:04:26;;;;;;;11.32;6.38;;;20.00;99.90;;;;;;5028784;28;20040;-58
2023/07/12 03:06:51;;;;;;;12.32;6.32;;;19.90;99.90;;;;;;5037979;28;20037;-62
2023/07/12 03:09:17;;;;;;;14.38;6.63;;;19.90;99.90;;;;;;5040417;28;20404;-55
2023/07/12 03:11:47;;;;;;;16.15;7.70;;;19.90;99.90;;;;;;5039441;28;20033;-60
2023/07/12 03:14:17;;;;;;;10.55;6.22;;;19.90;99.90;;;;;;5029970;28;20037;-63
2023/07/12 03:16:43;;;;;;;11.27;6.63;;;20.00;99.90;;;;;;5035783;28;20140;-54
2023/07/12 03:19:09;;;;;;;15.55;6.95;;;20.00;99.90;;;;;;5041008;28;20136;-57
2023/07/12 03:21:35;;;;;;;15.23;6.38;;;20.00;99.90;;;;;;5039949;28;20036;-59
2023/07/12 03:24:01;;;;;;;13.32;7.22;;;20.00;99.90;;;;;;5039029;28;20045;-60
2023/07/12 03:26:28;;;;;;;13.68;6.43;;;19.90;99.90;;;;;;5037967;28;22123;-59
2023/07/12 03:28:55;;;;;;;10.73;5.47;;;20.00;99.90;;;;;;5040717;28;20052;-57
2023/07/12 03:31:22;;;;;;;12.10;5.63;;;20.00;99.90;;;;;;5038008;28;20033;-59
2023/07/12 03:33:48;;;;;;;13.10;5.68;;;20.00;99.90;;;;;;5032266;28;20055;-58
2023/07/12 03:36:15;;;;;;;10.02;5.15;;;20.00;99.90;;;;;;5033333;28;20071;-60
2023/07/12 03:38:41;;;;;;;12.27;5.72;;;20.00;99.90;;;;;;5032754;28;20038;-61
2023/07/12 03:41:09;;;;;;;9.43;5.57;;;20.00;99.90;;;;;;5039316;28;20124;-59
2023/07/12 03:43:35;;;;;;;9.98;5.47;;;19.90;99.90;;;;;;5034973;28;20684;-60
2023/07/12 03:46:02;;;;;;;;;;;19.80;99.90;;;;;;5036066;28;20080;-59
2023/07/12 03:48:28;;;;;;;12.23;4.40;;;19.80;99.90;;;;;;5033599;28;20000;-60
2023/07/12 03:50:57;;;;;;;9.70;4.15;;;19.80;99.90;;;;;;5040038;28;20041;-61
2023/07/12 03:53:24;;;;;;;15.57;4.10;;;19.80;99.90;;;;;;5035175;28;20096;-57
2023/07/12 03:55:50;;;;;;;10.07;4.15;;;19.70;99.90;;;;;;5046328;28;20044;-56
2023/07/12 03:58:17;;;;;;;;;;;19.70;99.90;;;;;;5039214;28;20051;-58
2023/07/12 04:00:45;;;;;;;15.43;4.43;;;19.70;99.90;;;;;;5039071;28;19929;-59
2023/07/12 04:03:11;;;;;;;7.40;3.70;;;19.50;99.90;;;;;;5037539;28;20065;-61
2023/07/12 04:05:41;;;;;;;7.32;3.50;;;19.20;99.90;;;;;;5041091;28;20045;-57
2023/07/12 04:08:11;;;;;;;5.00;2.53;;;18.90;99.90;;;;;;5043765;28;20048;-58
2023/07/12 04:10:37;;;;;;;7.68;2.30;;;18.60;99.90;;;;;;5044875;28;20098;-56
2023/07/12 04:13:03;;;;;;;4.57;2.17;;;18.60;99.90;;;;;;5046256;28;20405;-62
2023/07/12 04:15:29;;;;;;;;;;;18.40;99.90;;;;;;5043022;28;20099;-62
2023/07/12 04:17:54;;;;;;;5.30;1.98;;;18.30;99.90;;;;;;5038358;28;20368;-57
2023/07/12 04:20:20;;;;;;;;;;;18.20;99.90;;;;;;5044247;28;20044;-56
2023/07/12 04:22:50;;;;;;;7.25;2.70;;;18.10;99.90;;;;;;5039755;28;19920;-60
2023/07/12 04:25:16;;;;;;;6.63;2.70;;;18.10;99.90;;;;;;5037616;28;20032;-59
2023/07/12 04:27:42;;;;;;;9.18;2.90;;;17.80;99.90;;;;;;5039007;28;20489;-60
2023/07/12 04:30:10;;;;;;;;;;;17.80;99.90;;;;;;5039775;28;20118;-57
2023/07/12 04:32:36;;;;;;;6.38;3.03;;;17.80;99.90;;;;;;5037272;28;19921;-58
2023/07/12 04:35:02;;;;;;;;;;;17.80;99.90;;;;;;5033418;28;20041;-60
2023/07/12 04:37:28;;;;;;;5.88;3.88;;;17.70;99.90;;;;;;5041276;28;19928;-60
2023/07/12 04:39:53;;;;;;;6.93;5.00;;;17.60;99.90;;;;;;5043191;28;20717;-61
2023/07/12 04:42:19;;;;;;;;;;;17.50;99.90;;;;;;5042994;28;20471;-58
2023/07/12 04:44:44;;;;;;;9.35;6.70;;;17.50;99.90;;;;;;5040622;28;19920;-57
2023/07/12 04:47:10;;;;;;;;;;;17.40;99.90;;;;;;5042075;28;20041;-61
2023/07/12 04:49:36;;;;;;;12.45;5.35;;;17.30;99.90;;;;;;5034691;28;19924;-57
2023/07/12 04:52:04;;;;;;;7.18;4.70;;;17.40;99.90;;;;;;5041406;28;20055;-54
2023/07/12 04:54:33;;;;;;;9.90;4.50;;;17.30;99.90;;;;;;5032409;28;20048;-53
2023/07/12 04:56:58;;;;;;;5.63;4.05;;;17.30;99.90;;;;;;5040838;28;20041;-59
2023/07/12 04:59:24;;;;;;;;;;;17.10;99.90;;;;;;5042573;28;20291;-54
2023/07/12 05:01:49;;;;;;;5.78;3.42;;;17.00;99.90;;;;;;5043490;28;19917;-66
2023/07/12 05:04:15;;;;;;;;;;;17.00;99.90;;;;;;5042504;28;20881;-58
2023/07/12 05:06:40;;;;;;;4.32;3.10;;;16.90;99.90;;;;;;5037515;28;19931;-63
2023/07/12 05:09:06;;;;;;;;;;;16.90;99.90;;;;;;5044216;28;20040;-59
2023/07/12 05:11:32;;;;;;;4.47;2.88;;;16.90;99.90;;;;;;5039393;28;19927;-60
2023/07/12 05:13:57;;;;;;;5.93;3.03;;;16.90;99.90;;;;;;5040211;28;20036;-57
2023/07/12 05:16:23;;;;;;;5.03;2.97;;;16.80;99.90;;;;;;5041785;28;20049;-56
2023/07/12 05:18:49;;;;;;;5.18;2.83;;;16.80;99.90;;;;;;5040446;28;20044;-58
2023/07/12 05:21:15;;;;;;;2.92;2.00;;;16.80;99.90;;;;;;5041278;28;20124;-56
2023/07/12 05:23:41;;;;;;;5.32;2.40;;;16.90;99.90;;;;;;5045425;28;20517;-57
2023/07/12 05:26:07;;;;;;;4.47;2.67;;;16.90;99.90;;;;;;5037909;28;20045;-61
2023/07/12 05:28:33;;;;;;;;;;;16.90;99.90;;;;;;5039429;28;20134;-59
2023/07/12 05:31:05;;;;;;;4.40;2.13;;;17.00;99.90;;;;;;5040780;28;20380;-61
2023/07/12 05:33:30;;;;;;;2.40;1.80;;;17.00;99.90;;;;;;5043102;28;20041;-56
2023/07/12 05:35:56;;;;;;;;;;;17.30;99.90;;;;;;5039068;28;20048;-60
2023/07/12 05:38:21;;;;;;;3.67;1.90;;;17.70;99.90;;;;;;5036392;28;19928;-60
2023/07/12 05:40:47;;;;;;;3.30;1.65;;;17.80;99.90;;;;;;5032666;28;20901;-55
2023/07/12 05:43:13;;;;;;;3.10;2.05;;;17.70;99.90;;;;;;5040577;28;20037;-60
2023/07/12 05:45:39;;;;;;;3.75;2.00;;;17.60;99.90;;;;;;5040431;28;20171;-59
2023/07/12 05:48:04;;;;;;;;;;;17.60;99.90;;;;;;5037442;28;20128;-55
2023/07/12 05:50:30;;;;;;;2.17;1.98;;;17.50;99.90;;;;;;5029647;28;19987;-55
2023/07/12 05:52:55;;;;;;;6.20;1.90;;;17.40;99.90;;;;;;5041829;28;20059;-59
2023/07/12 05:55:21;;;;;;;4.35;2.22;;;17.40;99.90;;;;;;5041545;28;20036;-55
2023/07/12 05:57:48;;;;;;;3.75;2.17;;;17.40;99.90;;;;;;5039377;28;20029;-57
2023/07/12 06:00:14;;;;;;;3.05;1.90;;;17.30;99.90;;;;;;5039202;28;20029;-57
2023/07/12 06:02:39;;;;;;;4.47;1.98;;;17.30;99.90;;;;;;5039809;28;20056;-60
2023/07/12 06:05:06;;;;;;;;;;;17.40;99.90;;;;;;5037840;28;20186;-55
2023/07/12 06:07:32;;;;;;;2.72;1.40;;;17.40;99.90;;;;;;5041691;28;19931;-59
2023/07/12 06:09:57;;;;;;;;;;;17.40;99.90;;;;;;5043223;28;20037;-58
2023/07/12 06:12:23;;;;;;;2.53;1.70;;;17.50;99.90;;;;;;5038427;28;19916;-53
2023/07/12 06:14:49;;;;;;;4.13;1.58;;;17.50;99.90;;;;;;5034682;28;20091;-60
2023/07/12 06:17:14;;;;;;;;;;;17.70;99.90;;;;;;5041415;28;20083;-56
2023/07/12 06:19:40;;;;;;;2.90;1.48;;;18.10;99.90;;;;;;5039878;28;19921;-58
2023/07/12 06:22:06;;;;;;;1.90;1.08;;;18.30;99.90;;;;;;5041435;28;20141;-57
2023/07/12 06:24:31;;;;;;;;;;;18.30;99.90;;;;;;5042458;28;20705;-60
2023/07/12 06:26:57;;;;;;;2.75;1.40;;;18.30;99.90;;;;;;5034313;28;20349;-58
2023/07/12 06:29:23;;;;;;;3.63;1.30;;;18.30;99.90;;;;;;5040094;28;20024;-55
2023/07/12 06:31:48;;;;;;;3.80;1.15;;;18.50;99.90;;;;;;5039999;28;20033;-49
2023/07/12 06:34:14;;;;;;;;;;;18.40;99.90;;;;;;5032911;28;20037;-54
2023/07/12 06:36:39;;;;;;;1.27;0.93;;;18.60;99.90;;;;;;5040777;28;19921;-58
2023/07/12 06:39:05;;;;;;;1.95;1.17;;;18.80;99.90;;;;;;5034879;28;20445;-57
2023/07/12 06:41:31;;;;;;;3.55;1.10;;;18.70;99.90;;;;;;5039185;28;20044;-53
2023/07/12 06:43:56;;;;;;;1.55;1.00;;;19.00;99.90;;;;;;5041433;28;20040;-57
2023/07/12 06:46:22;;;;;;;1.63;0.80;;;19.20;99.90;;;;;;5040727;28;20057;-59
2023/07/12 06:48:48;;;;;;;1.17;1.00;;;19.40;99.90;;;;;;5041195;28;20040;-56
2023/07/12 06:51:14;;;;;;;7.93;1.15;;;19.50;99.90;;;;;;5040459;28;20032;-54
2023/07/12 06:53:40;;;;;;;2.35;1.00;;;19.30;99.90;;;;;;5040777;28;20696;-51
2023/07/12 06:56:05;;;;;;;1.15;0.85;;;19.60;99.90;;;;;;5041405;28;20047;-58
2023/07/12 06:58:31;;;;;;;1.23;0.98;;;19.80;99.90;;;;;;5042314;28;20040;-61
2023/07/12 07:00:56;;;;;;;2.65;1.05;;;20.00;99.90;;;;;;5041463;28;20039;-58
2023/07/12 07:03:22;;;;;;;2.47;1.00;;;19.80;99.90;;;;;;5046409;28;20148;-57
2023/07/12 07:05:48;;;;;;;1.33;0.70;;;19.70;99.90;;;;;;5044586;28;20089;-48
2023/07/12 07:08:16;;;;;;;2.53;1.10;;;20.10;99.90;;;;;;5050458;28;20067;-55
2023/07/12 07:10:44;;;;;;;1.98;1.10;;;20.20;99.90;;;;;;5045695;28;20498;-58
2023/07/12 07:13:10;;;;;;;2.30;1.10;;;20.10;99.90;;;;;;5051214;28;20040;-55
2023/07/12 07:15:36;;;;;;;3.03;1.40;;;20.00;99.90;;;;;;5039009;28;20509;-59
2023/07/12 07:18:01;;;;;;;1.70;0.90;;;20.10;99.90;;;;;;5034418;28;20803;-60
2023/07/12 07:20:28;;;;;;;1.50;0.88;;;20.50;99.90;;;;;;5047849;28;20090;-56
2023/07/12 07:22:54;;;;;;;3.25;0.90;;;21.20;99.90;;;;;;5044100;28;20044;-56
2023/07/12 07:25:20;;;;;;;3.03;1.67;;;21.50;99.90;;;;;;5044475;28;20029;-58
2023/07/12 07:27:46;;;;;;;2.10;1.20;;;21.70;99.90;;;;;;5043806;28;20052;-58
2023/07/12 07:30:13;;;;;;;1.75;0.85;;;21.90;99.90;;;;;;5049490;28;20116;-56
2023/07/12 07:32:39;;;;;;;3.25;1.20;;;22.30;98.70;;;;;;5063189;28;20040;-55
2023/07/12 07:35:06;;;;;;;5.25;1.25;;;22.20;99.20;;;;;;5067039;28;20730;-60
2023/07/12 07:37:31;;;;;;;4.00;1.40;;;21.80;99.30;;;;;;5066116;28;20052;-56
2023/07/12 07:39:57;;;;;;;1.30;0.90;;;21.60;99.90;;;;;;5064389;28;20040;-61
2023/07/12 07:42:23;;;;;;;2.28;0.88;;;21.90;99.30;;;;;;5067643;28;20143;-61
2023/07/12 07:44:48;;;;;;;1.95;1.00;;;22.60;98.90;;;;;;5069323;28;20127;-58
2023/07/12 07:47:15;;;;;;;1.55;0.90;;;21.90;98.50;;;;;;5062887;28;20037;-58
2023/07/12 07:49:40;;;;;;;2.47;1.10;;;21.70;99.90;;;;;;5073910;28;20033;-59
2023/07/12 07:52:06;;;;;;;1.55;0.90;;;21.50;99.90;;;;;;5058813;28;20037;-58
2023/07/12 07:54:32;;;;;;;2.03;0.75;;;21.00;99.90;;;;;;5060490;28;20049;-56
2023/07/12 07:56:57;;;;;;;3.83;1.05;;;20.60;99.90;;;;;;5059046;28;20539;-59
2023/07/12 07:59:23;;;;;;;3.22;1.10;;;21.00;99.90;;;;;;5060804;28;20408;-54
2023/07/12 08:01:49;;;;;;;2.10;1.15;;;20.90;99.90;;;;;;5049469;28;20047;-57
2023/07/12 08:04:15;;;;;;;2.17;1.10;;;20.70;99.90;;;;;;5041135;28;20037;-60
2023/07/12 08:06:40;;;;;;;1.90;0.95;;;20.70;99.90;;;;;;5039656;28;20040;-60
2023/07/12 08:09:09;;;;;;;2.35;1.17;;;20.40;99.90;;;;;;5044149;28;20033;-58
2023/07/12 08:11:35;;;;;;;1.25;1.00;;;20.20;99.90;;;;;;5032572;28;20080;-60
2023/07/12 08:14:00;;;;;;;1.90;1.20;;;20.10;99.90;;;;;;5043259;28;20037;-54
2023/07/12 08:16:27;;;;;;;2.10;1.20;;;20.20;99.90;;;;;;5036981;28;20116;-59
2023/07/12 08:18:53;;;;;;;1.88;1.23;;;21.20;99.90;;;;;;5044309;28;20608;-57
2023/07/12 08:21:19;;;;;;;1.38;0.88;;;21.60;98.60;;;;;;5035067;28;20133;-60
2023/07/12 08:23:45;;;;;;;1.05;0.90;;;21.90;99.90;;;;;;5041465;28;20070;-60
2023/07/12 08:26:11;;;;;;;1.45;1.10;;;22.10;98.40;;;;;;5042549;28;20079;-61
2023/07/12 08:28:37;;;;;;;3.72;1.27;;;22.00;98.50;;;;;;5026368;28;20164;-58
2023/07/12 08:31:02;;;;;;;2.45;1.20;;;21.40;98.90;;;;;;5037317;28;20191;-59
2023/07/12 08:33:28;;;;;;;3.33;1.60;;;20.90;99.90;;;;;;5040224;28;20041;-54
2023/07/12 08:35:54;;;;;;;2.75;1.30;;;20.60;99.90;;;;;;5038188;28;20052;-59
2023/07/12 08:38:19;;;;;;;2.47;1.58;;;20.70;99.90;;;;;;5042198;28;20041;-60
2023/07/12 08:40:48;;;;;;;3.15;1.70;;;20.80;99.70;;;;;;5029676;28;20102;-57
2023/07/12 08:43:20;;;;;;;2.22;1.20;;;20.70;99.90;;;;;;5034366;28;20565;-58
2023/07/12 08:45:49;;;;;;;2.33;1.05;;;21.30;99.90;;;;;;5036925;28;20064;-59
2023/07/12 08:48:20;;;;;;;1.63;1.30;;;21.60;99.00;;;;;;5038683;28;20043;-57
2023/07/12 08:50:47;;;;;;;2.50;1.60;;;21.40;98.90;;;;;;5042871;28;20068;-54
2023/07/12 08:53:26;;;;;;;3.38;1.60;;;21.00;99.70;;;;;;5039718;28;20525;-59
2023/07/12 08:55:53;;;;;;;2.60;1.88;;;21.10;99.70;;;;;;5030884;28;20052;-59
2023/07/12 08:58:33;;;;;;;2.35;1.60;;;20.80;99.50;;;;;;5032647;28;20122;-59
2023/07/12 09:01:05;;;;;;;4.05;1.65;;;20.60;99.90;;;;;;5034432;28;20095;-56
2023/07/12 09:03:31;;;;;;;2.75;1.90;;;20.20;99.90;;;;;;5031826;28;20041;-56
2023/07/12 09:05:58;;;;;;;4.18;1.80;;;20.20;99.90;;;;;;5034854;28;20049;-57
2023/07/12 09:08:37;;;;;;;4.30;2.30;;;19.90;99.90;;;;;;5035038;28;20558;-56
2023/07/12 09:11:03;;;;;;;3.38;2.20;;;19.70;99.90;;;;;;5037800;28;20584;-58
2023/07/12 09:13:34;;;;;;;4.05;2.00;;;19.50;99.90;;;;;;5034825;28;20049;-56
2023/07/12 09:16:00;;;;;;;2.67;2.38;;;19.20;99.90;;;;;;5038431;28;20045;-61
2023/07/12 09:18:29;;;;;;;3.28;2.05;;;18.90;99.90;;;;;;5037985;28;20037;-59
2023/07/12 09:20:57;;;;;;;3.78;3.08;;;19.20;99.90;;;;;;5039020;28;20080;-59
2023/07/12 09:23:22;;;;;;;3.10;2.80;;;19.40;99.90;;;;;;5038108;28;20053;-57
2023/07/12 09:25:54;;;;;;;3.20;2.70;;;19.80;99.90;;;;;;5036111;28;20155;-56
2023/07/12 09:28:20;;;;;;;3.90;2.97;;;20.10;99.90;;;;;;5037808;28;20041;-58
2023/07/12 09:30:46;;;;;;;2.92;2.60;;;20.00;99.90;;;;;;5036523;28;20102;-57
2023/07/12 09:33:23;;;;;;;3.78;2.90;;;19.90;99.90;;;;;;5039920;28;20567;-59
2023/07/12 09:35:49;;;;;;;4.88;3.03;;;20.00;99.90;;;;;;5038418;28;20055;-59
2023/07/12 09:38:23;;;;;;;8.07;3.25;;;19.80;99.90;;;;;;5038188;28;20051;-59
2023/07/12 09:40:50;;;;;;;3.78;3.30;;;19.90;99.90;;;;;;5033581;28;20604;-61
2023/07/12 09:43:21;;;;;;;8.65;3.95;;;20.00;99.90;;;;;;5033115;28;20037;-60
2023/07/12 09:46:12;;;;;;;5.57;3.92;;;19.80;99.90;;;;;;5035108;28;20045;-59
2023/07/12 09:49:07;;;;;;;5.53;3.50;;;19.70;99.90;;;;;;5021455;28;20041;-59
2023/07/12 09:51:53;;;;;;;7.63;3.65;;;20.00;99.90;;;;;;5000806;28;20045;-55
2023/07/12 09:54:33;;;;;;;4.88;2.50;;;20.20;99.90;;;;;;5033596;28;20540;-54
2023/07/12 09:57:19;;;;;;;3.47;2.05;;;20.40;99.90;;;;;;5041778;28;20120;-60
2023/07/12 10:00:19;;;;;;;2.35;1.92;;;20.40;99.90;;;;;;5040748;28;20036;-59
2023/07/12 10:03:22;;;;;;;2.78;1.98;;;20.40;99.90;;;;;;5027176;28;20041;-53
2023/07/12 10:05:56;;;;;;;2.08;1.67;;;20.50;99.90;;;;;;5037711;28;20048;-57
2023/07/12 10:08:25;;;;;;;3.47;1.70;;;20.40;99.90;;;;;;5039005;28;20049;-55
2023/07/12 10:11:03;;;;;;;2.65;1.30;;;20.60;99.90;;;;;;5041930;28;20082;-51
2023/07/12 10:13:56;;;;;;;2.42;1.30;;;20.60;99.90;;;;;;5032478;28;20044;-56
2023/07/12 10:16:26;;;;;;;1.33;1.10;;;20.60;99.90;;;;;;5040613;28;20096;-53
2023/07/12 10:18:53;;;;;;;4.45;0.98;;;20.50;99.90;;;;;;5040704;28;20048;-58
2023/07/12 10:21:26;;;;;;;2.40;1.15;;;20.70;99.70;;;;;;5041031;28;20033;-55
2023/07/12 10:23:55;;;;;;;6.20;1.17;;;20.60;99.90;;;;;;5038701;28;20040;-58
2023/07/12 10:26:21;;;;;;;4.43;1.58;;;20.50;99.60;;;;;;5036295;28;20047;-57
2023/07/12 10:28:59;;;;;;;1.45;0.93;;;20.50;99.90;;;;;;5041714;28;20808;-56
2023/07/12 10:31:30;;;;;;;3.50;1.00;;;20.70;99.90;;;;;;5048770;28;20401;-59
2023/07/12 10:34:07;;;;;;;4.57;0.80;;;20.90;99.60;;;;;;5061519;28;20036;-56
2023/07/12 10:36:35;;;;;;;1.35;0.85;;;21.10;99.90;;;;;;5063921;28;20074;-56
2023/07/12 10:39:03;;;;;;;2.60;1.15;;;20.90;99.40;;;;;;5062809;28;20120;-54
2023/07/12 10:41:38;;;;;;;1.77;0.98;;;20.90;99.60;;;;;;5060231;28;20044;-60
2023/07/12 10:44:26;;;;;;;3.25;1.08;;;21.10;99.50;;;;;;5064674;28;20036;-58
2023/07/12 10:46:56;;;;;;;2.92;1.25;;;21.10;97.90;;;;;;5061568;28;20044;-53
2023/07/12 10:49:48;;;;;;;1.70;0.90;;;21.10;98.10;;;;;;5073915;28;20036;-58
2023/07/12 10:52:30;;;;;;;2.08;1.02;;;21.10;99.00;;;;;;5060351;28;20029;-60
2023/07/12 10:55:08;;;;;;;4.13;0.95;;;21.00;97.90;;;;;;5078014;28;20578;-58
2023/07/12 10:57:46;;;;;;;4.38;0.90;;;21.10;96.80;;;;;;5065394;28;20075;-55
2023/07/12 11:00:25;;;;;;;3.47;0.90;;;21.20;97.10;;;;;;5075364;28;20040;-56
2023/07/12 11:03:09;;;;;;;1.92;1.00;;;21.30;97.50;;;;;;5033508;28;20049;-59
2023/07/12 11:05:57;;;;;;;1.75;0.82;;;21.40;96.40;;;;;;5034650;28;20552;-54
2023/07/12 11:08:32;;;;;;;4.20;1.15;;;21.20;96.10;;;;;;5033489;28;20052;-54
2023/07/12 11:11:10;;;;;;;6.60;1.08;;;21.10;95.90;;;;;;5032152;28;20036;-55
2023/07/12 11:13:43;;;;;;;2.15;0.90;;;20.90;96.80;;;;;;5034828;28;20584;-54
2023/07/12 11:16:18;;;;;;;1.63;0.85;;;21.10;96.40;;;;;;5037929;28;20564;-59
2023/07/12 11:18:54;;;;;;;1.88;0.70;;;21.10;96.50;;;;;;5032797;28;20047;-60
2023/07/12 11:21:40;;;;;;;4.85;1.13;;;21.40;97.30;;;;;;5023759;28;20037;-59
2023/07/12 11:24:31;;;;;;;2.40;0.82;;;21.50;96.00;;;;;;5039636;28;20124;-61
2023/07/12 11:26:59;;;;;;;3.15;1.05;;;21.40;95.40;;;;;;5041156;28;20574;-55
2023/07/12 11:29:25;;;;;;;2.72;1.10;;;21.40;96.40;;;;;;5041178;28;20559;-54
2023/07/12 11:32:07;;;;;;;1.73;0.90;;;21.60;96.40;;;;;;5038236;28;20528;-55
2023/07/12 11:34:38;;;;;;;1.65;0.68;;;21.70;95.30;;;;;;5034635;28;20041;-54
2023/07/12 11:37:11;;;;;;;4.88;1.00;;;21.80;95.20;;;;;;5029817;28;20037;-61
2023/07/12 11:39:36;;;;;;;3.13;0.95;;;21.90;95.60;;;;;;5034509;28;20037;-61
2023/07/12 11:42:08;;;;;;;2.60;1.20;;;21.90;95.70;;;;;;5034648;28;20059;-61
2023/07/12 11:44:34;;;;;;;1.83;0.82;;;21.90;93.40;;;;;;5034755;28;20056;-61
2023/07/12 11:47:02;;;;;;;2.60;1.10;;;21.90;94.50;;;;;;5031910;28;20508;-59
2023/07/12 11:49:29;;;;;;;3.45;0.82;;;22.10;94.70;;;;;;5034003;28;20120;-57
2023/07/12 11:52:01;;;;;;;2.22;0.88;;;22.30;94.20;;;;;;5039992;28;20057;-56
2023/07/12 11:54:37;;;;;;;2.08;0.98;;;22.30;93.10;;;;;;5032241;28;20037;-58
2023/07/12 11:57:03;;;;;;;2.22;0.60;;;22.20;93.00;;;;;;5036624;28;20527;-56
2023/07/12 11:59:36;;;;;;;4.50;0.95;;;22.20;93.50;;;;;;5035309;28;20128;-59
2023/07/12 12:02:05;;;;;;;3.35;0.90;;;22.30;92.50;;;;;;5038947;28;20037;-61
2023/07/12 12:04:31;;;;;;;2.22;0.73;;;22.00;92.10;;;;;;5035568;28;20048;-61
2023/07/12 12:07:20;;;;;;;2.00;0.68;;;21.80;92.70;;;;;;5036570;28;20049;-55
2023/07/12 12:09:47;;;;;;;6.65;0.90;;;21.50;93.90;;;;;;5037572;28;20112;-60
2023/07/12 12:12:16;;;;;;;3.08;0.88;;;21.40;94.10;;;;;;5038023;28;20044;-59
2023/07/12 12:14:42;;;;;;;5.25;0.77;;;21.20;94.10;;;;;;5040371;28;20578;-58
2023/07/12 12:17:37;;;;;;;2.42;0.90;;;21.30;94.70;;;;;;5044614;28;20137;-57
2023/07/12 12:20:09;;;;;;;6.85;0.93;;;21.30;94.00;;;;;;5022854;28;20497;-56
2023/07/12 12:22:40;;;;;;;2.45;1.00;;;21.40;94.20;;;;;;5041959;28;20038;-60
2023/07/12 12:25:15;;;;;;;4.53;0.80;;;21.70;93.40;;;;;;5039000;28;20052;-53
2023/07/12 12:27:43;;;;;;;3.70;1.38;;;21.80;93.00;;;;;;5036696;28;20063;-54
2023/07/12 12:30:15;;;;;;;4.28;0.70;;;21.90;93.20;;;;;;5038540;28;20033;-61
2023/07/12 12:32:41;;;;;;;3.83;0.90;;;21.90;91.40;;;;;;5058632;28;20046;-60
2023/07/12 12:35:18;;;;;;;2.78;0.70;;;22.20;91.70;;;;;;5060029;28;20231;-54
2023/07/12 12:37:52;;;;;;;;;;;22.30;91.50;;;;;;5062178;28;20118;-57
2023/07/12 12:40:18;;;;;;;2.65;0.80;;;22.10;90.00;;;;;;5062937;28;19920;-60
2023/07/12 12:43:00;;;;;;;5.68;1.10;;;22.10;91.60;;;;;;5062066;28;20488;-59
2023/07/12 12:45:37;;;;;;;6.72;0.80;;;22.20;90.80;;;;;;5060587;28;20048;-55
2023/07/12 12:48:11;;;;;;;5.38;0.95;;;22.40;90.90;;;;;;5064097;28;20308;-60
2023/07/12 12:50:37;;;;;;;4.35;0.90;;;22.50;91.30;;;;;;5056490;28;20041;-58
2023/07/12 12:53:04;;;;;;;2.15;0.85;;;22.50;91.00;;;;;;5058352;28;20076;-59
2023/07/12 12:55:31;;;;;;;4.10;0.82;;;22.50;90.50;;;;;;5060821;28;20127;-60
2023/07/12 12:57:56;;;;;;;3.50;0.90;;;22.50;89.40;;;;;;5059525;28;20051;-59
2023/07/12 13:00:25;;;;;;;6.40;0.82;;;22.40;89.80;;;;;;5061981;28;20044;-60